This is the latest recevied weather packets stored in our database for station/object SQ5VCO-13. If no packets are shown the sender has not sent any weather packets the latest 10 day(s).
| Time | Temp. | Humidity | Pressure | Rain* | Wind** | Luminosity | Snow |
|---|---|---|---|---|---|---|---|
| 1778100004 | 13.33° C | 68% | 1005.9 hPa | 0 mm | - | - | - |
| 1778098804 | 13.33° C | 65% | 1005.7 hPa | 0 mm | - | - | - |
| 1778096104 | 15° C | 61% | 1005.6 hPa | 0 mm | - | - | - |
| 1778092204 | 18.33° C | 50% | 1005.5 hPa | 0 mm | - | - | - |
| 1778090406 | 20.56° C | 46% | 1005.4 hPa | 0 mm | - | - | - |
| 1778086804 | 22.78° C | 40% | 1005.3 hPa | 0 mm | - | - | - |
| 1778086203 | 23.33° C | 39% | 1005.2 hPa | 0 mm | - | - | - |
| 1778085004 | 23.89° C | 36% | 1005.2 hPa | 0 mm | - | - | - |
| 1778083204 | 25° C | 36% | 1005.1 hPa | 0 mm | - | - | - |
| 1778082904 | 25° C | 36% | 1005.1 hPa | 0 mm | - | - | - |
| 1778081237 | 26.11° C | 34% | 1005 hPa | 0 mm | - | - | - |
| 1778079604 | 25.56° C | 37% | 1004.9 hPa | 0 mm | - | - | - |
| 1778079305 | 25° C | 36% | 1005 hPa | 0 mm | - | - | - |
| 1778078404 | 26.67° C | 33% | 1005.1 hPa | 0 mm | - | - | - |
| 1778077804 | 27.22° C | 33% | 1005.1 hPa | 0 mm | - | - | - |
| 1778075104 | 26.11° C | 33% | 1004.6 hPa | 0 mm | - | - | - |
| 1778074204 | 25° C | 35% | 1004.8 hPa | 0 mm | - | - | - |
| 1778073904 | 25° C | 34% | 1004.7 hPa | 0 mm | - | - | - |
| 1778071503 | 26.67° C | 31% | 1004.5 hPa | 0 mm | - | - | - |
| 1778070604 | 25.56° C | 31% | 1004.7 hPa | 0 mm | - | - | - |
| 1778069835 | 26.11° C | 31% | 1004.5 hPa | 0 mm | - | - | - |
| 1778068335 | 26.67° C | 29% | 1004.2 hPa | 0 mm | - | - | - |
| 1778067604 | 26.67° C | 29% | 1004.1 hPa | 0 mm | - | - | - |
| 1778067434 | 27.22° C | 29% | 1004.4 hPa | 0 mm | - | - | - |
| 1778067004 | 27.78° C | 23% | 1004.3 hPa | 0 mm | - | - | - |
* Rain latest hour (hover to see other rain measurements)
** Current wind speed in m/s (hover to see current wind gust speed)